Time;durP1;ratioP1;P1;durP2;ratioP2;P2;SDS_P1;SDS_P2;PMS_P1;PMS_P2;Temp;Humidity;BMP_temperature;BMP_pressure;BME280_temperature;BME280_humidity;BME280_pressure;Samples;Min_cycle;Max_cycle;Signal;HPM_P1;HPM_P2
2023/12/12 00:01:55;;;;;;;61.30;27.10;;;;;;;;;;5100807;28;20052;-73
2023/12/12 00:04:21;;;;;;;44.45;20.42;;;;;;;;;;5105189;28;20053;-72
2023/12/12 00:06:47;;;;;;;42.40;19.92;;;;;;;;;;5103652;28;20024;-72
2023/12/12 00:09:13;;;;;;;42.75;19.48;;;;;;;;;;5095136;28;20020;-72
2023/12/12 00:11:39;;;;;;;39.25;19.10;;;;;;;;;;5092982;28;20468;-73
2023/12/12 00:14:05;;;;;;;39.42;18.60;;;;;;;;;;5093815;28;20073;-71
2023/12/12 00:16:31;;;;;;;44.28;20.20;;;;;;;;;;5092911;28;20483;-71
2023/12/12 00:18:58;;;;;;;45.20;19.85;;;;;;;;;;5092656;28;20099;-71
2023/12/12 00:21:24;;;;;;;44.28;19.27;;;;;;;;;;5092811;28;20478;-73
2023/12/12 00:23:50;;;;;;;50.00;20.83;;;;;;;;;;5092902;28;20036;-72
2023/12/12 00:26:16;;;;;;;45.88;19.73;;;;;;;;;;5103541;28;20039;-73
2023/12/12 00:28:42;;;;;;;44.55;19.02;;;;;;;;;;5098633;28;20103;-71
2023/12/12 00:31:08;;;;;;;49.13;20.23;;;;;;;;;;5092701;28;20016;-72
2023/12/12 00:33:34;;;;;;;47.03;19.15;;;;;;;;;;5092333;28;20383;-72
2023/12/12 00:36:03;;;;;;;44.97;18.50;;;;;;;;;;5092837;28;20044;-72
2023/12/12 00:38:29;;;;;;;45.58;17.95;;;;;;;;;;5092183;28;20111;-73
2023/12/12 00:40:56;;;;;;;41.63;17.17;;;;;;;;;;5092227;28;20147;-72
2023/12/12 00:43:23;;;;;;;41.38;16.48;;;;;;;;;;5092317;28;20080;-72
2023/12/12 00:45:49;;;;;;;43.47;16.58;;;;;;;;;;5092307;28;20066;-72
2023/12/12 00:48:15;;;;;;;45.78;17.95;;;;;;;;;;5092010;28;20031;-72
2023/12/12 00:50:41;;;;;;;47.00;17.33;;;;;;;;;;5099817;28;20032;-72
2023/12/12 00:53:07;;;;;;;39.03;15.30;;;;;;;;;;5105239;28;20390;-73
2023/12/12 00:55:33;;;;;;;41.03;15.15;;;;;;;;;;5103501;28;20028;-72
2023/12/12 00:57:59;;;;;;;42.03;15.90;;;;;;;;;;5101943;28;20463;-72
2023/12/12 01:00:25;;;;;;;46.17;16.90;;;;;;;;;;5101043;28;20032;-72
2023/12/12 01:02:51;;;;;;;40.97;15.43;;;;;;;;;;5123127;28;20043;-73
2023/12/12 01:05:17;;;;;;;43.42;16.25;;;;;;;;;;5118958;28;20067;-73
2023/12/12 01:07:43;;;;;;;55.22;18.02;;;;;;;;;;5108265;28;20024;-74
2023/12/12 01:10:09;;;;;;;52.05;18.38;;;;;;;;;;5103725;28;20020;-72
2023/12/12 01:12:36;;;;;;;50.83;19.00;;;;;;;;;;5097147;28;20028;-72
2023/12/12 01:15:02;;;;;;;52.33;19.83;;;;;;;;;;5096446;28;20059;-72
2023/12/12 01:17:28;;;;;;;46.83;18.42;;;;;;;;;;5093602;28;20024;-73
2023/12/12 01:19:55;;;;;;;46.95;19.10;;;;;;;;;;5092014;28;20051;-72
2023/12/12 01:22:21;;;;;;;46.72;19.50;;;;;;;;;;5091785;28;20024;-73
2023/12/12 01:24:47;;;;;;;82.68;19.58;;;;;;;;;;5097359;28;20027;-72
2023/12/12 01:27:13;;;;;;;45.42;18.20;;;;;;;;;;5102639;28;20052;-73
2023/12/12 01:29:39;;;;;;;51.28;20.50;;;;;;;;;;5104194;28;20016;-73
2023/12/12 01:32:05;;;;;;;47.20;19.15;;;;;;;;;;5092853;28;20100;-73
2023/12/12 01:34:31;;;;;;;47.08;20.35;;;;;;;;;;5091362;28;20024;-73
2023/12/12 01:36:57;;;;;;;45.20;20.02;;;;;;;;;;5092418;28;20494;-71
2023/12/12 01:39:23;;;;;;;50.83;20.90;;;;;;;;;;5091424;28;20028;-71
2023/12/12 01:41:49;;;;;;;49.85;21.08;;;;;;;;;;5091517;28;20035;-71
2023/12/12 01:44:16;;;;;;;51.65;21.20;;;;;;;;;;5091661;28;20387;-72
2023/12/12 01:46:44;;;;;;;48.35;21.00;;;;;;;;;;5091501;28;20028;-72
2023/12/12 01:49:10;;;;;;;56.58;21.23;;;;;;;;;;5091784;28;20028;-73
2023/12/12 01:51:36;;;;;;;59.20;21.85;;;;;;;;;;5092831;28;20099;-72
2023/12/12 01:54:02;;;;;;;47.33;20.20;;;;;;;;;;5091734;28;20024;-72
2023/12/12 01:56:29;;;;;;;49.63;20.75;;;;;;;;;;5091523;28;20075;-74
2023/12/12 01:58:55;;;;;;;52.83;21.83;;;;;;;;;;5094929;28;20028;-73
2023/12/12 02:01:21;;;;;;;50.60;20.70;;;;;;;;;;5095623;28;20024;-72
2023/12/12 02:03:48;;;;;;;48.88;20.83;;;;;;;;;;5095349;28;20024;-73
2023/12/12 02:06:14;;;;;;;55.97;22.25;;;;;;;;;;5095416;28;20042;-73
2023/12/12 02:08:42;;;;;;;46.88;20.95;;;;;;;;;;5094473;28;20028;-74
2023/12/12 02:11:09;;;;;;;58.67;22.77;;;;;;;;;;5096247;28;20031;-73
2023/12/12 02:13:34;;;;;;;57.60;23.27;;;;;;;;;;5095955;28;20024;-73
2023/12/12 02:16:00;;;;;;;56.95;25.27;;;;;;;;;;5097097;28;20024;-73
2023/12/12 02:18:26;;;;;;;59.03;25.48;;;;;;;;;;5094026;28;20027;-72
2023/12/12 02:20:52;;;;;;;51.30;23.52;;;;;;;;;;5095101;28;20113;-72
2023/12/12 02:23:18;;;;;;;60.55;25.25;;;;;;;;;;5096286;28;20016;-73
2023/12/12 02:25:44;;;;;;;54.55;23.85;;;;;;;;;;5095393;28;20024;-72
2023/12/12 02:28:10;;;;;;;63.15;26.25;;;;;;;;;;5094767;28;20028;-72
2023/12/12 02:30:36;;;;;;;62.28;26.45;;;;;;;;;;5094033;28;20027;-72
2023/12/12 02:33:04;;;;;;;63.40;27.35;;;;;;;;;;5094934;28;20368;-73
2023/12/12 02:35:31;;;;;;;62.05;26.27;;;;;;;;;;5094780;28;20027;-73
2023/12/12 02:37:57;;;;;;;67.25;26.70;;;;;;;;;;5103280;28;20048;-72
2023/12/12 02:40:23;;;;;;;59.53;25.60;;;;;;;;;;5103751;28;20032;-73
2023/12/12 02:42:51;;;;;;;64.68;26.17;;;;;;;;;;5108404;28;20392;-73
2023/12/12 02:45:17;;;;;;;62.40;26.85;;;;;;;;;;5123200;28;20027;-73
2023/12/12 02:47:43;;;;;;;59.25;25.15;;;;;;;;;;5124080;28;20020;-74
2023/12/12 02:50:09;;;;;;;63.92;26.73;;;;;;;;;;5100740;28;20044;-73
2023/12/12 02:52:35;;;;;;;71.82;27.90;;;;;;;;;;5094539;28;20032;-72
2023/12/12 02:55:01;;;;;;;65.35;26.77;;;;;;;;;;5094808;28;20089;-72
2023/12/12 02:57:27;;;;;;;65.43;24.65;;;;;;;;;;5094660;28;20028;-72
2023/12/12 02:59:53;;;;;;;69.93;26.75;;;;;;;;;;5094240;28;20422;-73
2023/12/12 03:02:18;;;;;;;64.75;26.00;;;;;;;;;;5094011;28;20117;-74
2023/12/12 03:04:45;;;;;;;72.25;27.48;;;;;;;;;;5094370;28;20475;-73
2023/12/12 03:07:11;;;;;;;74.22;26.02;;;;;;;;;;5094000;28;20508;-73
2023/12/12 03:09:37;;;;;;;63.30;26.10;;;;;;;;;;5092951;28;20028;-74
2023/12/12 03:12:03;;;;;;;75.10;27.25;;;;;;;;;;5094037;28;20027;-73
2023/12/12 03:14:29;;;;;;;68.97;26.35;;;;;;;;;;5100724;28;20034;-74
2023/12/12 03:16:55;;;;;;;71.13;26.98;;;;;;;;;;5102233;28;20032;-74
2023/12/12 03:19:22;;;;;;;72.50;27.85;;;;;;;;;;5104894;28;20031;-74
2023/12/12 03:21:48;;;;;;;73.35;27.50;;;;;;;;;;5123161;28;20015;-74
2023/12/12 03:24:14;;;;;;;67.53;25.77;;;;;;;;;;5111037;28;20473;-72
2023/12/12 03:26:40;;;;;;;74.32;27.42;;;;;;;;;;5094131;28;20549;-71
2023/12/12 03:29:06;;;;;;;75.18;29.10;;;;;;;;;;5093336;28;20035;-73
2023/12/12 03:31:32;;;;;;;67.80;26.27;;;;;;;;;;5110963;28;20024;-73
2023/12/12 03:33:58;;;;;;;63.65;24.23;;;;;;;;;;5093760;28;20103;-72
2023/12/12 03:36:24;;;;;;;73.00;26.30;;;;;;;;;;5093748;28;20067;-73
2023/12/12 03:38:50;;;;;;;76.25;28.77;;;;;;;;;;5093350;28;20031;-72
2023/12/12 03:41:16;;;;;;;73.07;27.05;;;;;;;;;;5098521;28;20028;-72
2023/12/12 03:43:42;;;;;;;73.80;28.55;;;;;;;;;;5130605;28;20051;-72
2023/12/12 03:46:12;;;;;;;67.70;27.08;;;;;;;;;;5115054;28;20024;-73
2023/12/12 03:48:38;;;;;;;72.25;27.55;;;;;;;;;;5114896;28;20033;-73
2023/12/12 03:51:04;;;;;;;108.60;39.60;;;;;;;;;;5114691;28;20062;-72
2023/12/12 03:53:30;;;;;;;99.93;34.13;;;;;;;;;;5113698;28;20170;-73
2023/12/12 03:55:56;;;;;;;76.72;29.13;;;;;;;;;;5115228;28;20467;-71
2023/12/12 03:58:22;;;;;;;89.88;28.30;;;;;;;;;;5112938;28;20043;-72
2023/12/12 04:00:48;;;;;;;89.55;27.70;;;;;;;;;;5113679;28;20070;-72
2023/12/12 04:03:14;;;;;;;76.97;28.45;;;;;;;;;;5112846;28;20042;-73
2023/12/12 04:05:41;;;;;;;79.57;28.27;;;;;;;;;;5113343;28;20108;-71
2023/12/12 04:08:07;;;;;;;75.53;27.67;;;;;;;;;;5113128;28;20027;-72
2023/12/12 04:10:33;;;;;;;78.85;28.70;;;;;;;;;;5113403;28;20489;-72
2023/12/12 04:12:59;;;;;;;76.13;27.60;;;;;;;;;;5113420;28;20027;-72
2023/12/12 04:15:25;;;;;;;79.47;28.60;;;;;;;;;;5113630;28;20035;-72
2023/12/12 04:17:52;;;;;;;95.55;29.33;;;;;;;;;;5113125;28;20034;-72
2023/12/12 04:20:18;;;;;;;78.45;28.52;;;;;;;;;;5112339;28;20386;-73
2023/12/12 04:22:44;;;;;;;80.03;27.45;;;;;;;;;;5113457;28;20020;-74
2023/12/12 04:25:13;;;;;;;74.40;26.85;;;;;;;;;;5113182;28;20034;-73
2023/12/12 04:27:39;;;;;;;77.60;28.27;;;;;;;;;;5113197;28;20069;-73
2023/12/12 04:30:06;;;;;;;77.13;28.90;;;;;;;;;;5113080;28;20095;-73
2023/12/12 04:32:32;;;;;;;85.13;29.10;;;;;;;;;;5112953;28;20470;-72
2023/12/12 04:34:59;;;;;;;86.70;29.40;;;;;;;;;;5113420;28;20020;-75
2023/12/12 04:37:25;;;;;;;89.20;28.25;;;;;;;;;;5115114;28;20034;-78
2023/12/12 04:39:51;;;;;;;86.60;28.20;;;;;;;;;;5111932;28;20032;-76
2023/12/12 04:42:17;;;;;;;92.05;29.65;;;;;;;;;;5098046;28;20571;-75
2023/12/12 04:44:43;;;;;;;82.65;28.90;;;;;;;;;;5096181;28;20107;-74
2023/12/12 04:47:09;;;;;;;83.75;28.48;;;;;;;;;;5101680;28;20031;-74
2023/12/12 04:49:36;;;;;;;85.13;28.20;;;;;;;;;;5108113;28;20024;-75
2023/12/12 04:52:04;;;;;;;91.13;29.23;;;;;;;;;;5108776;28;20020;-74
2023/12/12 04:54:30;;;;;;;92.25;30.45;;;;;;;;;;5107910;28;20494;-74
2023/12/12 04:56:56;;;;;;;90.72;30.52;;;;;;;;;;5108377;28;20387;-73
2023/12/12 04:59:22;;;;;;;93.63;31.17;;;;;;;;;;5107420;28;20413;-75
2023/12/12 05:01:49;;;;;;;95.07;31.88;;;;;;;;;;5107069;28;20038;-73
2023/12/12 05:04:15;;;;;;;82.97;29.00;;;;;;;;;;5107442;28;20124;-76
2023/12/12 05:06:41;;;;;;;88.90;30.20;;;;;;;;;;5103016;28;20032;-74
2023/12/12 05:09:07;;;;;;;81.03;28.70;;;;;;;;;;5098397;28;20032;-74
2023/12/12 05:11:34;;;;;;;81.10;28.38;;;;;;;;;;5101393;28;20393;-76
2023/12/12 05:14:00;;;;;;;75.40;27.80;;;;;;;;;;5109130;28;20016;-75
2023/12/12 05:16:26;;;;;;;72.05;27.70;;;;;;;;;;5104522;28;20024;-73
2023/12/12 05:18:54;;;;;;;75.13;27.60;;;;;;;;;;5100067;28;20028;-73
2023/12/12 05:21:21;;;;;;;70.57;26.35;;;;;;;;;;5092074;28;20512;-72
2023/12/12 05:23:48;;;;;;;75.88;27.85;;;;;;;;;;5092082;28;20103;-73
2023/12/12 05:26:15;;;;;;;86.30;31.38;;;;;;;;;;5091904;28;20031;-72
2023/12/12 05:28:41;;;;;;;75.93;27.80;;;;;;;;;;5091822;28;20027;-72
2023/12/12 05:31:07;;;;;;;80.72;27.88;;;;;;;;;;5091773;28;20032;-72
2023/12/12 05:33:33;;;;;;;65.38;26.05;;;;;;;;;;5091151;28;20505;-72
2023/12/12 05:35:59;;;;;;;59.85;25.08;;;;;;;;;;5091952;28;20021;-72
2023/12/12 05:38:25;;;;;;;70.40;26.70;;;;;;;;;;5091393;28;20024;-72
2023/12/12 05:40:51;;;;;;;71.30;26.83;;;;;;;;;;5091671;28;20103;-73
2023/12/12 05:43:17;;;;;;;81.20;29.70;;;;;;;;;;5091600;28;20395;-73
2023/12/12 05:45:43;;;;;;;80.93;28.25;;;;;;;;;;5091736;28;20035;-72
2023/12/12 05:48:09;;;;;;;75.75;27.10;;;;;;;;;;5091455;28;20032;-73
2023/12/12 05:50:35;;;;;;;78.07;27.02;;;;;;;;;;5091418;28;20021;-73
2023/12/12 05:53:01;;;;;;;80.10;27.90;;;;;;;;;;5091654;28;20024;-75
2023/12/12 05:55:28;;;;;;;80.40;27.73;;;;;;;;;;5091973;28;20027;-71
2023/12/12 05:57:54;;;;;;;81.03;29.15;;;;;;;;;;5091282;28;20391;-70
2023/12/12 06:00:20;;;;;;;71.55;26.35;;;;;;;;;;5090940;28;20043;-72
2023/12/12 06:02:46;;;;;;;73.72;27.05;;;;;;;;;;5090755;28;20024;-74
2023/12/12 06:05:12;;;;;;;99.15;28.63;;;;;;;;;;5091427;28;20099;-72
2023/12/12 06:07:38;;;;;;;102.13;29.70;;;;;;;;;;5091286;28;20103;-73
2023/12/12 06:10:08;;;;;;;93.80;32.00;;;;;;;;;;5090872;28;20024;-72
2023/12/12 06:12:34;;;;;;;77.55;28.15;;;;;;;;;;5091031;28;20043;-72
2023/12/12 06:15:00;;;;;;;75.82;27.77;;;;;;;;;;5091170;28;20102;-73
2023/12/12 06:17:26;;;;;;;85.15;32.88;;;;;;;;;;5091597;28;20039;-72
2023/12/12 06:19:52;;;;;;;94.93;36.45;;;;;;;;;;5091648;28;20366;-74
2023/12/12 06:22:18;;;;;;;83.65;30.30;;;;;;;;;;5091245;28;20035;-73
2023/12/12 06:24:45;;;;;;;89.63;30.25;;;;;;;;;;5091483;28;20025;-72
2023/12/12 06:27:12;;;;;;;86.47;31.38;;;;;;;;;;5094035;28;20489;-75
2023/12/12 06:29:38;;;;;;;93.10;30.75;;;;;;;;;;5107590;28;20102;-75
2023/12/12 06:32:04;;;;;;;88.93;29.95;;;;;;;;;;5091010;28;20031;-74
2023/12/12 06:34:31;;;;;;;101.63;31.85;;;;;;;;;;5094146;28;20030;-75
2023/12/12 06:36:57;;;;;;;108.75;32.65;;;;;;;;;;5105051;28;20024;-73
2023/12/12 06:39:23;;;;;;;141.25;31.20;;;;;;;;;;5104087;28;20035;-74
2023/12/12 06:41:49;;;;;;;91.53;29.42;;;;;;;;;;5097792;28;20515;-74
2023/12/12 06:44:15;;;;;;;95.15;30.33;;;;;;;;;;5099439;28;20035;-76
2023/12/12 06:46:41;;;;;;;96.68;35.45;;;;;;;;;;5102669;28;20036;-73
2023/12/12 06:49:07;;;;;;;83.00;29.63;;;;;;;;;;5101795;28;20160;-74
2023/12/12 06:51:33;;;;;;;89.20;29.40;;;;;;;;;;5106436;28;20421;-72
2023/12/12 06:53:59;;;;;;;85.38;29.52;;;;;;;;;;5110124;28;20016;-74
2023/12/12 06:56:26;;;;;;;85.72;29.10;;;;;;;;;;5111820;28;20020;-75
2023/12/12 06:58:52;;;;;;;84.38;29.45;;;;;;;;;;5104088;28;20028;-76
2023/12/12 07:01:18;;;;;;;91.03;30.15;;;;;;;;;;5100662;28;20483;-72
2023/12/12 07:03:44;;;;;;;82.35;29.20;;;;;;;;;;5106974;28;20260;-72
2023/12/12 07:06:10;;;;;;;80.00;26.73;;;;;;;;;;5111789;28;20085;-73
2023/12/12 07:08:36;;;;;;;82.20;27.27;;;;;;;;;;5109310;28;20016;-73
2023/12/12 07:11:02;;;;;;;95.90;29.38;;;;;;;;;;5104340;28;20027;-74
2023/12/12 07:13:28;;;;;;;98.72;31.52;;;;;;;;;;5094788;28;20056;-73
2023/12/12 07:15:54;;;;;;;86.35;28.30;;;;;;;;;;5103727;28;20066;-73
2023/12/12 07:18:20;;;;;;;82.07;27.77;;;;;;;;;;5103903;28;20085;-81
2023/12/12 07:20:46;;;;;;;80.93;27.35;;;;;;;;;;5104634;28;20019;-73
2023/12/12 07:23:12;;;;;;;74.00;26.67;;;;;;;;;;5093924;28;20493;-71
2023/12/12 07:25:39;;;;;;;78.60;27.42;;;;;;;;;;5094509;28;20494;-72
2023/12/12 07:28:05;;;;;;;79.53;27.83;;;;;;;;;;5103758;28;20507;-73
2023/12/12 07:30:32;;;;;;;75.53;27.23;;;;;;;;;;5093183;28;20544;-72
2023/12/12 07:32:58;;;;;;;75.15;25.45;;;;;;;;;;5093772;28;20017;-71
2023/12/12 07:35:24;;;;;;;85.28;27.45;;;;;;;;;;5094186;28;20016;-72
2023/12/12 07:37:50;;;;;;;72.75;27.05;;;;;;;;;;5094220;28;20417;-71
2023/12/12 07:40:16;;;;;;;81.25;29.40;;;;;;;;;;5093397;28;20529;-73
2023/12/12 07:42:42;;;;;;;79.38;29.00;;;;;;;;;;5093760;28;20444;-75
2023/12/12 07:45:09;;;;;;;80.18;27.52;;;;;;;;;;5093536;28;20024;-72
2023/12/12 07:47:35;;;;;;;84.22;31.10;;;;;;;;;;5094022;28;20543;-72
2023/12/12 07:50:05;;;;;;;62.72;23.70;;;;;;;;;;5093141;28;20028;-72
2023/12/12 07:52:31;;;;;;;53.97;22.70;;;;;;;;;;5092857;28;20414;-72
2023/12/12 07:54:57;;;;;;;46.97;19.02;;;;;;;;;;5092636;28;20035;-73
2023/12/12 07:57:23;;;;;;;44.03;18.90;;;;;;;;;;5093342;28;20032;-71
2023/12/12 07:59:49;;;;;;;38.90;17.80;;;;;;;;;;5092679;28;20126;-71
2023/12/12 08:02:15;;;;;;;36.78;16.58;;;;;;;;;;5092838;28;20034;-70
2023/12/12 08:04:41;;;;;;;33.90;15.25;;;;;;;;;;5092979;28;20466;-72
2023/12/12 08:07:07;;;;;;;40.03;16.77;;;;;;;;;;5092884;28;20039;-73
2023/12/12 08:09:33;;;;;;;39.20;17.08;;;;;;;;;;5092924;28;20178;-71
2023/12/12 08:12:00;;;;;;;37.25;17.40;;;;;;;;;;5092679;28;20490;-70
2023/12/12 08:14:26;;;;;;;45.47;19.10;;;;;;;;;;5094836;28;20335;-72
2023/12/12 08:16:53;;;;;;;40.13;17.33;;;;;;;;;;5098230;28;20024;-72
2023/12/12 08:19:20;;;;;;;43.83;17.55;;;;;;;;;;5095311;28;20028;-76
2023/12/12 08:21:46;;;;;;;42.38;18.38;;;;;;;;;;5092764;28;20035;-74
2023/12/12 08:24:12;;;;;;;44.60;18.65;;;;;;;;;;5092806;28;20471;-71
2023/12/12 08:26:41;;;;;;;46.38;19.60;;;;;;;;;;5092899;28;20038;-73
2023/12/12 08:29:07;;;;;;;46.88;20.17;;;;;;;;;;5093375;28;20065;-76
2023/12/12 08:31:34;;;;;;;47.65;19.92;;;;;;;;;;5093290;28;20648;-73
2023/12/12 08:34:00;;;;;;;52.75;22.08;;;;;;;;;;5096804;28;20486;-72
2023/12/12 08:36:26;;;;;;;52.20;20.33;;;;;;;;;;5113044;28;20384;-71
2023/12/12 08:38:53;;;;;;;52.22;21.17;;;;;;;;;;5115538;28;20034;-72
2023/12/12 08:41:21;;;;;;;51.45;20.52;;;;;;;;;;5113252;28;20445;-73
2023/12/12 08:43:47;;;;;;;54.55;22.55;;;;;;;;;;5110618;28;20070;-71
2023/12/12 08:46:13;;;;;;;59.88;22.25;;;;;;;;;;5111723;28;20026;-71
2023/12/12 08:48:39;;;;;;;58.58;22.20;;;;;;;;;;5115011;28;20019;-72
2023/12/12 08:51:05;;;;;;;56.70;23.08;;;;;;;;;;5112372;28;20069;-71
2023/12/12 08:53:31;;;;;;;61.03;23.52;;;;;;;;;;5112176;28;20034;-71
2023/12/12 08:55:58;;;;;;;62.58;24.45;;;;;;;;;;5113086;28;20024;-73
2023/12/12 08:58:25;;;;;;;64.85;26.20;;;;;;;;;;5112140;28;20053;-73
2023/12/12 09:00:54;;;;;;;68.60;26.55;;;;;;;;;;5112529;28;20401;-73
2023/12/12 09:03:20;;;;;;;65.18;25.75;;;;;;;;;;5112628;28;20431;-73
2023/12/12 09:05:46;;;;;;;64.03;25.13;;;;;;;;;;5112616;28;20106;-73
2023/12/12 09:08:12;;;;;;;59.95;23.48;;;;;;;;;;5111281;28;20070;-72
2023/12/12 09:10:38;;;;;;;58.85;22.75;;;;;;;;;;5111966;28;20022;-73
2023/12/12 09:13:04;;;;;;;57.97;22.98;;;;;;;;;;5111850;28;20020;-72
2023/12/12 09:15:33;;;;;;;58.03;23.63;;;;;;;;;;5112595;28;20141;-73
2023/12/12 09:17:59;;;;;;;58.97;22.83;;;;;;;;;;5112127;28;20016;-74
2023/12/12 09:20:26;;;;;;;56.70;23.30;;;;;;;;;;5112288;28;20015;-75
2023/12/12 09:22:52;;;;;;;58.88;23.58;;;;;;;;;;5112389;28;20435;-72
2023/12/12 09:25:19;;;;;;;54.92;22.15;;;;;;;;;;5112196;28;20048;-71
2023/12/12 09:27:45;;;;;;;65.20;24.33;;;;;;;;;;5111747;28;20019;-71
2023/12/12 09:30:11;;;;;;;57.40;22.95;;;;;;;;;;5111814;28;20024;-71
2023/12/12 09:32:37;;;;;;;59.47;23.63;;;;;;;;;;5111667;28;20045;-73
2023/12/12 09:35:04;;;;;;;56.95;22.55;;;;;;;;;;5113548;28;20381;-73
2023/12/12 09:37:30;;;;;;;61.53;23.40;;;;;;;;;;5113125;28;20020;-73
2023/12/12 09:39:56;;;;;;;63.67;26.98;;;;;;;;;;5112717;28;20054;-72
2023/12/12 09:42:24;;;;;;;60.72;25.33;;;;;;;;;;5113530;28;20032;-75
2023/12/12 09:44:58;;;;;;;64.25;25.17;;;;;;;;;;5111889;28;20502;-73
2023/12/12 09:47:24;;;;;;;;;;;;;;;;;;5113459;28;20428;-72
2023/12/12 09:49:51;;;;;;;63.53;24.20;;;;;;;;;;5111403;28;20045;-72
2023/12/12 09:52:17;;;;;;;65.32;24.02;;;;;;;;;;5111462;28;20065;-71
2023/12/12 09:54:43;;;;;;;58.83;23.58;;;;;;;;;;5111549;28;20068;-71
2023/12/12 09:57:11;;;;;;;63.33;24.23;;;;;;;;;;5114556;28;20482;-73
2023/12/12 09:59:37;;;;;;;65.32;25.30;;;;;;;;;;5113344;28;20031;-73
2023/12/12 10:02:03;;;;;;;65.30;25.23;;;;;;;;;;5117091;28;20027;-72
2023/12/12 10:04:30;;;;;;;59.78;24.02;;;;;;;;;;5119829;28;20144;-76
2023/12/12 10:06:59;;;;;;;55.47;22.70;;;;;;;;;;5118570;28;20024;-75
2023/12/12 10:09:25;;;;;;;53.25;21.27;;;;;;;;;;5113554;28;20050;-74
2023/12/12 10:11:51;;;;;;;53.15;22.15;;;;;;;;;;5116677;28;20023;-73
2023/12/12 10:14:40;;;;;;;50.50;20.88;;;;;;;;;;5112433;28;20019;-72
2023/12/12 10:17:10;;;;;;;56.05;22.77;;;;;;;;;;5111507;28;20073;-73
2023/12/12 10:19:36;;;;;;;45.08;19.50;;;;;;;;;;5114565;28;20031;-72
2023/12/12 10:22:05;;;;;;;54.20;22.23;;;;;;;;;;5115641;28;20611;-72
2023/12/12 10:24:31;;;;;;;45.78;20.35;;;;;;;;;;5115382;28;20073;-72
2023/12/12 10:26:57;;;;;;;50.92;20.13;;;;;;;;;;5115214;28;20034;-73
2023/12/12 10:29:23;;;;;;;47.45;20.02;;;;;;;;;;5115889;28;20475;-73
2023/12/12 10:31:50;;;;;;;49.60;20.88;;;;;;;;;;5115024;28;20108;-76
2023/12/12 10:34:19;;;;;;;49.05;20.63;;;;;;;;;;5115182;28;20024;-72
2023/12/12 10:36:50;;;;;;;50.55;21.10;;;;;;;;;;5115043;28;20048;-72
2023/12/12 10:39:16;;;;;;;48.30;21.40;;;;;;;;;;5112883;28;20390;-72
2023/12/12 10:41:55;;;;;;;48.83;20.73;;;;;;;;;;5106288;28;20095;-72
2023/12/12 10:44:22;;;;;;;46.17;18.40;;;;;;;;;;5094751;28;20055;-73
2023/12/12 10:46:54;;;;;;;40.17;17.70;;;;;;;;;;5094784;28;20497;-73
2023/12/12 10:49:28;;;;;;;38.30;16.65;;;;;;;;;;5094506;28;20044;-72
2023/12/12 10:51:54;;;;;;;38.88;16.15;;;;;;;;;;5094576;28;20451;-72
2023/12/12 10:54:24;;;;;;;39.30;17.50;;;;;;;;;;5094754;28;20084;-74
2023/12/12 10:56:50;;;;;;;42.53;19.05;;;;;;;;;;5094738;28;20028;-72
2023/12/12 10:59:17;;;;;;;39.78;17.25;;;;;;;;;;5094058;28;20059;-72
2023/12/12 11:01:47;;;;;;;49.22;20.15;;;;;;;;;;5094212;28;20073;-73
2023/12/12 11:04:14;;;;;;;56.05;23.40;;;;;;;;;;5094326;28;20028;-73
2023/12/12 11:06:41;;;;;;;49.28;22.27;;;;;;;;;;5094405;28;20024;-72
2023/12/12 11:09:08;;;;;;;56.60;21.77;;;;;;;;;;5094522;28;20024;-75
2023/12/12 11:11:34;;;;;;;46.10;20.60;;;;;;;;;;5094504;28;20091;-75
2023/12/12 11:14:01;;;;;;;52.17;22.02;;;;;;;;;;5094759;28;20024;-74
2023/12/12 11:16:28;;;;;;;49.40;21.48;;;;;;;;;;5094260;28;20490;-74
2023/12/12 11:18:55;;;;;;;48.35;20.90;;;;;;;;;;5094112;28;20540;-74
2023/12/12 11:21:40;;;;;;;50.03;21.35;;;;;;;;;;5094508;28;20052;-72
2023/12/12 11:24:06;;;;;;;50.20;21.30;;;;;;;;;;5112221;28;20016;-73
2023/12/12 11:26:32;;;;;;;52.20;22.90;;;;;;;;;;5113401;28;20023;-73
2023/12/12 11:28:58;;;;;;;50.95;23.13;;;;;;;;;;5110877;28;20035;-74
2023/12/12 11:31:26;;;;;;;54.00;22.35;;;;;;;;;;5110721;28;20114;-73
2023/12/12 11:34:02;;;;;;;49.63;22.05;;;;;;;;;;5112811;28;20042;-72
2023/12/12 11:36:28;;;;;;;46.53;21.20;;;;;;;;;;5112352;28;20029;-73
2023/12/12 11:38:55;;;;;;;51.70;21.42;;;;;;;;;;5112883;28;20505;-73
2023/12/12 11:41:21;;;;;;;48.25;21.98;;;;;;;;;;5112735;28;20547;-75
2023/12/12 11:43:47;;;;;;;47.00;19.88;;;;;;;;;;5112800;28;20832;-73
2023/12/12 11:46:20;;;;;;;40.30;19.42;;;;;;;;;;5112684;28;20045;-73
2023/12/12 11:48:46;;;;;;;42.70;20.35;;;;;;;;;;5112354;28;20019;-73
2023/12/12 11:51:31;;;;;;;40.75;18.05;;;;;;;;;;5113126;28;20024;-72
2023/12/12 11:53:57;;;;;;;35.65;17.33;;;;;;;;;;5111396;28;20126;-73
2023/12/12 11:56:22;;;;;;;38.35;17.80;;;;;;;;;;5112318;28;20016;-73
2023/12/12 11:58:52;;;;;;;32.28;15.82;;;;;;;;;;5110402;28;20035;-74
2023/12/12 12:01:26;;;;;;;35.40;16.15;;;;;;;;;;5112622;28;20016;-73
2023/12/12 12:03:52;;;;;;;36.40;16.83;;;;;;;;;;5111941;28;20035;-72
2023/12/12 12:06:18;;;;;;;34.13;16.60;;;;;;;;;;5113292;28;20068;-72
2023/12/12 12:08:44;;;;;;;28.73;14.23;;;;;;;;;;5113245;28;20016;-71
2023/12/12 12:11:11;;;;;;;33.08;15.50;;;;;;;;;;5113282;28;20024;-72
2023/12/12 12:13:40;;;;;;;30.70;14.20;;;;;;;;;;5112488;28;20011;-70
2023/12/12 12:16:06;;;;;;;31.65;15.32;;;;;;;;;;5112954;28;20020;-72
2023/12/12 12:18:33;;;;;;;24.25;12.60;;;;;;;;;;5110930;28;20027;-73
2023/12/12 12:20:59;;;;;;;24.10;11.30;;;;;;;;;;5111634;28;20023;-74
2023/12/12 12:23:25;;;;;;;26.80;13.02;;;;;;;;;;5111126;28;20024;-72
2023/12/12 12:25:51;;;;;;;24.70;12.50;;;;;;;;;;5111395;28;20024;-71
2023/12/12 12:28:17;;;;;;;21.92;11.70;;;;;;;;;;5111187;28;20069;-72
2023/12/12 12:30:46;;;;;;;23.50;12.07;;;;;;;;;;5110287;28;20020;-73
2023/12/12 12:33:13;;;;;;;21.63;10.85;;;;;;;;;;5111544;28;20428;-74
2023/12/12 12:35:50;;;;;;;21.15;11.32;;;;;;;;;;5111106;28;20363;-72
2023/12/12 12:38:26;;;;;;;23.08;12.85;;;;;;;;;;5109561;28;20030;-71
2023/12/12 12:40:52;;;;;;;22.10;11.35;;;;;;;;;;5108723;28;20509;-71
2023/12/12 12:43:18;;;;;;;24.38;11.95;;;;;;;;;;5107008;28;20024;-71
2023/12/12 12:45:47;;;;;;;23.50;12.82;;;;;;;;;;5109992;28;20023;-71
2023/12/12 12:48:14;;;;;;;19.92;11.70;;;;;;;;;;5107644;28;20537;-70
2023/12/12 12:50:41;;;;;;;26.88;13.65;;;;;;;;;;5108065;28;20031;-71
2023/12/12 12:53:07;;;;;;;22.48;13.20;;;;;;;;;;5109851;28;20030;-72
2023/12/12 12:55:33;;;;;;;25.65;13.50;;;;;;;;;;5109758;28;20023;-71
2023/12/12 12:57:59;;;;;;;23.73;13.15;;;;;;;;;;5112181;28;20035;-72
2023/12/12 13:00:26;;;;;;;21.75;13.57;;;;;;;;;;5112488;28;20482;-72
2023/12/12 13:02:52;;;;;;;24.65;14.60;;;;;;;;;;5111788;28;20024;-71
2023/12/12 13:05:18;;;;;;;24.17;13.82;;;;;;;;;;5112308;28;20102;-71
2023/12/12 13:07:44;;;;;;;26.77;15.13;;;;;;;;;;5111675;28;20526;-73
2023/12/12 13:10:11;;;;;;;25.60;15.25;;;;;;;;;;5110213;28;20015;-71
2023/12/12 13:12:40;;;;;;;28.80;16.17;;;;;;;;;;5095072;28;20063;-71
2023/12/12 13:15:09;;;;;;;31.88;16.60;;;;;;;;;;5091944;28;20100;-71
2023/12/12 13:17:35;;;;;;;34.97;17.63;;;;;;;;;;5091597;28;20497;-72
2023/12/12 13:20:11;;;;;;;29.42;17.95;;;;;;;;;;5091772;28;20024;-71
2023/12/12 13:22:41;;;;;;;36.08;19.95;;;;;;;;;;5095211;28;20548;-71
2023/12/12 13:25:09;;;;;;;43.22;21.10;;;;;;;;;;5091546;28;20401;-72
2023/12/12 13:27:35;;;;;;;39.30;20.75;;;;;;;;;;5091703;28;20525;-74
2023/12/12 13:30:01;;;;;;;37.90;21.90;;;;;;;;;;5091690;28;20027;-72
2023/12/12 13:32:27;;;;;;;42.30;21.60;;;;;;;;;;5105779;28;20027;-73
2023/12/12 13:34:54;;;;;;;41.10;22.58;;;;;;;;;;5112056;28;20043;-72
2023/12/12 13:37:20;;;;;;;44.38;23.05;;;;;;;;;;5112103;28;20035;-71
2023/12/12 13:39:46;;;;;;;39.55;22.30;;;;;;;;;;5111653;28;20027;-72
2023/12/12 13:42:12;;;;;;;45.20;23.40;;;;;;;;;;5111732;28;20362;-73
2023/12/12 13:44:38;;;;;;;48.30;22.90;;;;;;;;;;5109591;28;20388;-71
2023/12/12 13:47:04;;;;;;;47.50;24.35;;;;;;;;;;5111050;28;20024;-71
2023/12/12 13:49:30;;;;;;;44.72;23.30;;;;;;;;;;5098566;28;20383;-71
2023/12/12 13:51:57;;;;;;;44.65;22.92;;;;;;;;;;5098102;28;20024;-73
2023/12/12 13:54:23;;;;;;;50.53;25.48;;;;;;;;;;5102441;28;20024;-73
2023/12/12 13:56:50;;;;;;;48.35;24.67;;;;;;;;;;5108357;28;20107;-70
2023/12/12 13:59:16;;;;;;;48.72;26.13;;;;;;;;;;5099451;28;20027;-70
2023/12/12 14:01:42;;;;;;;48.22;25.20;;;;;;;;;;5107064;28;20061;-71
2023/12/12 14:04:08;;;;;;;54.17;26.38;;;;;;;;;;5114369;28;20085;-70
2023/12/12 14:06:34;;;;;;;45.72;24.98;;;;;;;;;;5114785;28;20098;-70
2023/12/12 14:09:00;;;;;;;59.13;28.98;;;;;;;;;;5095338;28;20078;-70
2023/12/12 14:11:26;;;;;;;50.70;26.10;;;;;;;;;;5111769;28;20030;-72
2023/12/12 14:13:52;;;;;;;46.65;24.25;;;;;;;;;;5107694;28;20026;-71